sensor_id;sensor_type;location;lat;lon;timestamp;pressure;altitude;pressure_sealevel;temperature;humidity
44765;BME280;30484;52.382;5.260;2023-06-14T00:00:57;101688.31;;;21.20;100.00
44765;BME280;30484;52.382;5.260;2023-06-14T00:03:26;101676.91;;;20.82;100.00
44765;BME280;30484;52.382;5.260;2023-06-14T00:05:55;101686.53;;;20.86;100.00
44765;BME280;30484;52.382;5.260;2023-06-14T00:08:24;101683.31;;;20.93;100.00
44765;BME280;30484;52.382;5.260;2023-06-14T00:10:54;101685.50;;;21.10;100.00
44765;BME280;30484;52.382;5.260;2023-06-14T00:13:23;101689.47;;;20.72;100.00
44765;BME280;30484;52.382;5.260;2023-06-14T00:15:52;101688.72;;;20.81;100.00
44765;BME280;30484;52.382;5.260;2023-06-14T00:18:22;101684.28;;;20.92;100.00
44765;BME280;30484;52.382;5.260;2023-06-14T00:20:56;101688.09;;;20.78;100.00
44765;BME280;30484;52.382;5.260;2023-06-14T00:23:25;101691.69;;;20.78;100.00
44765;BME280;30484;52.382;5.260;2023-06-14T00:25:55;101689.47;;;20.72;100.00
44765;BME280;30484;52.382;5.260;2023-06-14T00:28:25;101692.44;;;20.69;100.00
44765;BME280;30484;52.382;5.260;2023-06-14T00:30:55;101684.75;;;20.51;100.00
44765;BME280;30484;52.382;5.260;2023-06-14T00:33:24;101690.22;;;20.85;100.00
44765;BME280;30484;52.382;5.260;2023-06-14T00:35:53;101690.72;;;20.79;100.00
44765;BME280;30484;52.382;5.260;2023-06-14T00:38:22;101693.63;;;20.65;100.00
44765;BME280;30484;52.382;5.260;2023-06-14T00:40:51;101688.81;;;20.46;100.00
44765;BME280;30484;52.382;5.260;2023-06-14T00:43:21;101686.09;;;20.57;100.00
44765;BME280;30484;52.382;5.260;2023-06-14T00:45:51;101691.31;;;20.72;100.00
44765;BME280;30484;52.382;5.260;2023-06-14T00:48:20;101696.91;;;20.34;100.00
44765;BME280;30484;52.382;5.260;2023-06-14T00:50:50;101689.44;;;20.49;100.00
44765;BME280;30484;52.382;5.260;2023-06-14T00:53:21;101686.56;;;20.28;100.00
44765;BME280;30484;52.382;5.260;2023-06-14T00:55:52;101692.22;;;20.25;100.00
44765;BME280;30484;52.382;5.260;2023-06-14T00:58:22;101685.41;;;20.08;100.00
44765;BME280;30484;52.382;5.260;2023-06-14T01:00:51;101692.03;;;20.51;100.00
44765;BME280;30484;52.382;5.260;2023-06-14T01:03:20;101689.16;;;20.41;100.00
44765;BME280;30484;52.382;5.260;2023-06-14T01:06:02;101695.19;;;20.33;100.00
44765;BME280;30484;52.382;5.260;2023-06-14T01:08:47;101693.81;;;20.28;100.00
44765;BME280;30484;52.382;5.260;2023-06-14T01:11:25;101694.19;;;20.23;100.00
44765;BME280;30484;52.382;5.260;2023-06-14T01:14:00;101684.03;;;19.78;100.00
44765;BME280;30484;52.382;5.260;2023-06-14T01:16:31;101685.28;;;20.10;100.00
44765;BME280;30484;52.382;5.260;2023-06-14T01:19:04;101688.81;;;19.99;100.00
44765;BME280;30484;52.382;5.260;2023-06-14T01:21:34;101692.34;;;20.24;100.00
44765;BME280;30484;52.382;5.260;2023-06-14T01:24:11;101692.88;;;20.05;100.00
44765;BME280;30484;52.382;5.260;2023-06-14T01:26:40;101695.75;;;20.14;100.00
44765;BME280;30484;52.382;5.260;2023-06-14T01:29:14;101682.38;;;19.89;100.00
44765;BME280;30484;52.382;5.260;2023-06-14T01:31:46;101694.88;;;20.03;100.00
44765;BME280;30484;52.382;5.260;2023-06-14T01:34:15;101694.50;;;20.07;100.00
44765;BME280;30484;52.382;5.260;2023-06-14T01:36:45;101690.50;;;19.89;100.00
44765;BME280;30484;52.382;5.260;2023-06-14T01:39:20;101680.50;;;19.65;100.00
44765;BME280;30484;52.382;5.260;2023-06-14T01:41:50;101703.53;;;19.83;100.00
44765;BME280;30484;52.382;5.260;2023-06-14T01:44:20;101695.19;;;19.87;100.00
44765;BME280;30484;52.382;5.260;2023-06-14T01:46:51;101692.16;;;19.78;100.00
44765;BME280;30484;52.382;5.260;2023-06-14T01:49:20;101686.09;;;19.51;100.00
44765;BME280;30484;52.382;5.260;2023-06-14T01:51:49;101697.28;;;19.46;100.00
44765;BME280;30484;52.382;5.260;2023-06-14T01:54:20;101690.06;;;19.58;100.00
44765;BME280;30484;52.382;5.260;2023-06-14T01:56:50;101692.53;;;19.61;100.00
44765;BME280;30484;52.382;5.260;2023-06-14T01:59:19;101690.47;;;19.40;100.00
44765;BME280;30484;52.382;5.260;2023-06-14T02:01:48;101702.06;;;19.42;100.00
44765;BME280;30484;52.382;5.260;2023-06-14T02:04:17;101698.66;;;19.52;100.00
44765;BME280;30484;52.382;5.260;2023-06-14T02:06:46;101698.66;;;19.52;100.00
44765;BME280;30484;52.382;5.260;2023-06-14T02:09:15;101699.00;;;19.23;100.00
44765;BME280;30484;52.382;5.260;2023-06-14T02:11:46;101700.50;;;19.27;100.00
44765;BME280;30484;52.382;5.260;2023-06-14T02:14:16;101689.66;;;19.27;100.00
44765;BME280;30484;52.382;5.260;2023-06-14T02:16:45;101691.88;;;19.46;100.00
44765;BME280;30484;52.382;5.260;2023-06-14T02:19:16;101694.22;;;19.51;100.00
44765;BME280;30484;52.382;5.260;2023-06-14T02:21:46;101689.47;;;19.17;100.00
44765;BME280;30484;52.382;5.260;2023-06-14T02:24:15;101699.00;;;19.23;100.00
44765;BME280;30484;52.382;5.260;2023-06-14T02:26:43;101695.13;;;19.14;100.00
44765;BME280;30484;52.382;5.260;2023-06-14T02:29:14;101684.09;;;19.04;100.00
44765;BME280;30484;52.382;5.260;2023-06-14T02:31:43;101685.41;;;18.86;100.00
44765;BME280;30484;52.382;5.260;2023-06-14T02:34:14;101692.00;;;18.69;100.00
44765;BME280;30484;52.382;5.260;2023-06-14T02:36:44;101694.25;;;19.01;100.00
44765;BME280;30484;52.382;5.260;2023-06-14T02:39:15;101692.13;;;18.93;100.00
44765;BME280;30484;52.382;5.260;2023-06-14T02:41:45;101693.09;;;18.92;100.00
44765;BME280;30484;52.382;5.260;2023-06-14T02:44:17;101693.81;;;18.81;100.00
44765;BME280;30484;52.382;5.260;2023-06-14T02:46:46;101693.94;;;18.92;100.00
44765;BME280;30484;52.382;5.260;2023-06-14T02:49:16;101697.31;;;18.83;100.00
44765;BME280;30484;52.382;5.260;2023-06-14T02:51:45;101698.94;;;18.86;100.00
44765;BME280;30484;52.382;5.260;2023-06-14T02:54:14;101695.78;;;18.66;100.00
44765;BME280;30484;52.382;5.260;2023-06-14T02:56:43;101703.81;;;18.68;100.00
44765;BME280;30484;52.382;5.260;2023-06-14T02:59:12;101704.66;;;18.68;100.00
44765;BME280;30484;52.382;5.260;2023-06-14T03:01:43;101712.03;;;18.79;100.00
44765;BME280;30484;52.382;5.260;2023-06-14T03:04:12;101709.56;;;18.63;100.00
44765;BME280;30484;52.382;5.260;2023-06-14T03:06:41;101696.66;;;18.54;100.00
44765;BME280;30484;52.382;5.260;2023-06-14T03:09:12;101717.44;;;18.66;100.00
44765;BME280;30484;52.382;5.260;2023-06-14T03:11:41;101715.28;;;18.45;100.00
44765;BME280;30484;52.382;5.260;2023-06-14T03:14:09;101710.72;;;18.20;100.00
44765;BME280;30484;52.382;5.260;2023-06-14T03:16:38;101723.28;;;18.34;100.00
44765;BME280;30484;52.382;5.260;2023-06-14T03:19:11;101727.81;;;18.46;100.00
44765;BME280;30484;52.382;5.260;2023-06-14T03:21:40;101735.16;;;18.19;100.00
44765;BME280;30484;52.382;5.260;2023-06-14T03:24:12;101724.94;;;17.97;100.00
44765;BME280;30484;52.382;5.260;2023-06-14T03:26:43;101738.25;;;18.13;100.00
44765;BME280;30484;52.382;5.260;2023-06-14T03:29:12;101734.28;;;18.18;100.00
44765;BME280;30484;52.382;5.260;2023-06-14T03:31:58;101735.66;;;18.11;100.00
44765;BME280;30484;52.382;5.260;2023-06-14T03:34:28;101737.31;;;18.14;100.00
44765;BME280;30484;52.382;5.260;2023-06-14T03:36:57;101736.25;;;18.29;100.00
44765;BME280;30484;52.382;5.260;2023-06-14T03:39:26;101743.78;;;18.11;100.00
44765;BME280;30484;52.382;5.260;2023-06-14T03:41:54;101742.25;;;18.07;100.00
44765;BME280;30484;52.382;5.260;2023-06-14T03:44:23;101747.38;;;18.11;100.00
44765;BME280;30484;52.382;5.260;2023-06-14T03:46:52;101755.88;;;18.05;100.00
44765;BME280;30484;52.382;5.260;2023-06-14T03:49:20;101743.66;;;17.85;100.00
44765;BME280;30484;52.382;5.260;2023-06-14T03:51:50;101740.97;;;18.13;100.00
44765;BME280;30484;52.382;5.260;2023-06-14T03:54:19;101758.72;;;18.17;100.00
44765;BME280;30484;52.382;5.260;2023-06-14T03:56:51;101753.81;;;17.96;100.00
44765;BME280;30484;52.382;5.260;2023-06-14T03:59:21;101761.44;;;18.17;100.00
44765;BME280;30484;52.382;5.260;2023-06-14T04:01:51;101755.47;;;18.11;100.00
44765;BME280;30484;52.382;5.260;2023-06-14T04:04:21;101756.41;;;17.98;100.00
44765;BME280;30484;52.382;5.260;2023-06-14T04:07:05;101755.03;;;18.05;100.00
44765;BME280;30484;52.382;5.260;2023-06-14T04:09:36;101768.00;;;18.13;100.00
44765;BME280;30484;52.382;5.260;2023-06-14T04:12:06;101772.56;;;18.12;100.00
44765;BME280;30484;52.382;5.260;2023-06-14T04:14:36;101778.69;;;17.87;100.00
44765;BME280;30484;52.382;5.260;2023-06-14T04:17:05;101775.28;;;17.70;100.00
44765;BME280;30484;52.382;5.260;2023-06-14T04:19:35;101781.84;;;18.08;100.00
44765;BME280;30484;52.382;5.260;2023-06-14T04:22:08;101780.50;;;17.73;100.00
44765;BME280;30484;52.382;5.260;2023-06-14T04:24:38;101782.03;;;17.92;100.00
44765;BME280;30484;52.382;5.260;2023-06-14T04:27:07;101778.69;;;17.87;100.00
44765;BME280;30484;52.382;5.260;2023-06-14T04:29:36;101780.66;;;17.85;100.00
44765;BME280;30484;52.382;5.260;2023-06-14T04:32:07;101773.28;;;18.01;100.00
44765;BME280;30484;52.382;5.260;2023-06-14T04:34:37;101790.97;;;17.92;100.00
44765;BME280;30484;52.382;5.260;2023-06-14T04:37:08;101796.75;;;18.01;100.00
44765;BME280;30484;52.382;5.260;2023-06-14T04:39:39;101781.59;;;17.98;100.00
44765;BME280;30484;52.382;5.260;2023-06-14T04:42:09;101783.59;;;18.09;100.00
44765;BME280;30484;52.382;5.260;2023-06-14T04:44:39;101790.56;;;18.26;100.00
44765;BME280;30484;52.382;5.260;2023-06-14T04:47:08;101801.75;;;18.07;100.00
44765;BME280;30484;52.382;5.260;2023-06-14T04:49:39;101797.63;;;18.28;100.00
44765;BME280;30484;52.382;5.260;2023-06-14T04:52:09;101798.59;;;18.40;100.00
44765;BME280;30484;52.382;5.260;2023-06-14T04:54:40;101790.09;;;18.19;100.00
44765;BME280;30484;52.382;5.260;2023-06-14T04:57:09;101800.03;;;18.46;100.00
44765;BME280;30484;52.382;5.260;2023-06-14T04:59:42;101792.56;;;18.50;100.00
44765;BME280;30484;52.382;5.260;2023-06-14T05:02:11;101802.41;;;18.51;100.00
44765;BME280;30484;52.382;5.260;2023-06-14T05:04:41;101797.78;;;18.53;100.00
44765;BME280;30484;52.382;5.260;2023-06-14T05:07:10;101803.75;;;18.71;100.00
44765;BME280;30484;52.382;5.260;2023-06-14T05:09:40;101796.69;;;18.81;100.00
44765;BME280;30484;52.382;5.260;2023-06-14T05:12:09;101806.25;;;18.87;100.00
44765;BME280;30484;52.382;5.260;2023-06-14T05:14:37;101799.66;;;18.91;100.00
44765;BME280;30484;52.382;5.260;2023-06-14T05:17:06;101797.38;;;19.10;100.00
44765;BME280;30484;52.382;5.260;2023-06-14T05:19:35;101792.09;;;19.09;100.00
44765;BME280;30484;52.382;5.260;2023-06-14T05:22:04;101799.84;;;19.26;100.00
44765;BME280;30484;52.382;5.260;2023-06-14T05:24:33;101801.41;;;19.18;100.00
44765;BME280;30484;52.382;5.260;2023-06-14T05:27:02;101807.47;;;19.34;100.00
44765;BME280;30484;52.382;5.260;2023-06-14T05:29:30;101798.94;;;19.52;100.00
44765;BME280;30484;52.382;5.260;2023-06-14T05:31:58;101792.91;;;19.72;100.00
44765;BME280;30484;52.382;5.260;2023-06-14T05:34:27;101804.00;;;19.69;100.00
44765;BME280;30484;52.382;5.260;2023-06-14T05:36:59;101805.28;;;19.76;100.00
44765;BME280;30484;52.382;5.260;2023-06-14T05:39:36;101798.81;;;19.66;100.00
44765;BME280;30484;52.382;5.260;2023-06-14T05:42:07;101804.53;;;19.74;100.00
44765;BME280;30484;52.382;5.260;2023-06-14T05:44:36;101813.38;;;19.89;100.00
44765;BME280;30484;52.382;5.260;2023-06-14T05:47:10;101806.06;;;20.27;100.00
44765;BME280;30484;52.382;5.260;2023-06-14T05:49:42;101807.34;;;20.10;100.00
44765;BME280;30484;52.382;5.260;2023-06-14T05:52:10;101804.13;;;20.40;100.00
44765;BME280;30484;52.382;5.260;2023-06-14T05:54:40;101816.44;;;20.33;100.00
44765;BME280;30484;52.382;5.260;2023-06-14T05:57:11;101817.91;;;20.26;100.00
44765;BME280;30484;52.382;5.260;2023-06-14T05:59:40;101834.28;;;20.48;100.00
44765;BME280;30484;52.382;5.260;2023-06-14T06:02:08;101819.94;;;20.46;100.00
44765;BME280;30484;52.382;5.260;2023-06-14T06:04:37;101821.31;;;20.88;100.00
44765;BME280;30484;52.382;5.260;2023-06-14T06:07:06;101825.81;;;21.11;100.00
44765;BME280;30484;52.382;5.260;2023-06-14T06:09:34;101835.19;;;21.07;100.00
44765;BME280;30484;52.382;5.260;2023-06-14T06:12:07;101835.78;;;20.88;100.00
44765;BME280;30484;52.382;5.260;2023-06-14T06:14:38;101826.06;;;21.08;100.00
44765;BME280;30484;52.382;5.260;2023-06-14T06:17:08;101843.09;;;21.21;100.00
44765;BME280;30484;52.382;5.260;2023-06-14T06:19:37;101844.44;;;20.93;100.00
44765;BME280;30484;52.382;5.260;2023-06-14T06:22:05;101846.22;;;21.51;100.00
44765;BME280;30484;52.382;5.260;2023-06-14T06:24:35;101841.53;;;21.64;100.00
44765;BME280;30484;52.382;5.260;2023-06-14T06:27:04;101845.47;;;21.71;100.00
44765;BME280;30484;52.382;5.260;2023-06-14T06:29:36;101848.41;;;21.91;100.00
44765;BME280;30484;52.382;5.260;2023-06-14T06:32:06;101853.63;;;21.83;100.00
44765;BME280;30484;52.382;5.260;2023-06-14T06:34:35;101854.16;;;21.54;100.00
44765;BME280;30484;52.382;5.260;2023-06-14T06:37:05;101855.59;;;21.92;100.00
44765;BME280;30484;52.382;5.260;2023-06-14T06:39:34;101853.81;;;22.14;100.00
44765;BME280;30484;52.382;5.260;2023-06-14T06:42:05;101859.06;;;22.27;100.00
44765;BME280;30484;52.382;5.260;2023-06-14T06:44:38;101861.56;;;22.18;100.00
44765;BME280;30484;52.382;5.260;2023-06-14T06:47:06;101866.59;;;21.91;100.00
44765;BME280;30484;52.382;5.260;2023-06-14T06:49:36;101861.69;;;22.61;100.00
44765;BME280;30484;52.382;5.260;2023-06-14T06:52:06;101870.69;;;22.29;100.00
44765;BME280;30484;52.382;5.260;2023-06-14T06:54:35;101869.41;;;22.77;100.00
44765;BME280;30484;52.382;5.260;2023-06-14T06:57:04;101873.69;;;22.90;100.00
44765;BME280;30484;52.382;5.260;2023-06-14T06:59:35;101873.31;;;22.63;100.00
44765;BME280;30484;52.382;5.260;2023-06-14T07:02:06;101858.66;;;22.96;100.00
44765;BME280;30484;52.382;5.260;2023-06-14T07:04:35;101872.78;;;23.32;100.00
44765;BME280;30484;52.382;5.260;2023-06-14T07:07:07;101868.09;;;23.44;100.00
44765;BME280;30484;52.382;5.260;2023-06-14T07:09:38;101870.13;;;23.42;100.00
44765;BME280;30484;52.382;5.260;2023-06-14T07:12:08;101879.38;;;23.60;100.00
44765;BME280;30484;52.382;5.260;2023-06-14T07:14:37;101880.56;;;23.68;100.00
44765;BME280;30484;52.382;5.260;2023-06-14T07:17:08;101874.50;;;23.64;100.00
44765;BME280;30484;52.382;5.260;2023-06-14T07:19:37;101876.81;;;23.59;100.00
44765;BME280;30484;52.382;5.260;2023-06-14T07:22:06;101873.94;;;24.11;100.00
44765;BME280;30484;52.382;5.260;2023-06-14T07:24:35;101884.50;;;23.85;100.00
44765;BME280;30484;52.382;5.260;2023-06-14T07:27:06;101880.66;;;23.97;100.00
44765;BME280;30484;52.382;5.260;2023-06-14T07:29:41;101877.41;;;24.13;100.00
44765;BME280;30484;52.382;5.260;2023-06-14T07:32:21;101896.84;;;24.59;100.00
44765;BME280;30484;52.382;5.260;2023-06-14T07:34:52;101895.97;;;24.39;100.00
44765;BME280;30484;52.382;5.260;2023-06-14T07:37:21;101888.88;;;24.07;100.00
44765;BME280;30484;52.382;5.260;2023-06-14T07:39:53;101894.25;;;24.38;100.00
44765;BME280;30484;52.382;5.260;2023-06-14T07:42:38;101900.31;;;24.71;100.00
44765;BME280;30484;52.382;5.260;2023-06-14T07:45:13;101906.63;;;24.81;100.00
44765;BME280;30484;52.382;5.260;2023-06-14T07:47:54;101913.13;;;24.80;100.00
44765;BME280;30484;52.382;5.260;2023-06-14T07:50:25;101897.19;;;24.66;100.00
44765;BME280;30484;52.382;5.260;2023-06-14T07:52:56;101889.06;;;25.13;100.00
44765;BME280;30484;52.382;5.260;2023-06-14T07:55:29;101900.81;;;25.43;100.00
44765;BME280;30484;52.382;5.260;2023-06-14T07:58:15;101899.38;;;25.39;100.00
44765;BME280;30484;52.382;5.260;2023-06-14T08:00:46;101904.88;;;25.19;100.00
44765;BME280;30484;52.382;5.260;2023-06-14T08:03:17;101902.50;;;25.44;100.00
44765;BME280;30484;52.382;5.260;2023-06-14T08:05:47;101919.63;;;25.83;98.76
44765;BME280;30484;52.382;5.260;2023-06-14T08:08:17;101922.19;;;25.67;94.02
44765;BME280;30484;52.382;5.260;2023-06-14T08:10:47;101920.59;;;25.64;94.55
44765;BME280;30484;52.382;5.260;2023-06-14T08:13:16;101918.19;;;26.35;93.73
44765;BME280;30484;52.382;5.260;2023-06-14T08:15:52;101907.44;;;26.06;83.36
44765;BME280;30484;52.382;5.260;2023-06-14T08:18:22;101922.75;;;26.26;84.64
44765;BME280;30484;52.382;5.260;2023-06-14T08:20:51;101917.44;;;26.43;83.61
44765;BME280;30484;52.382;5.260;2023-06-14T08:23:21;101918.41;;;26.06;81.80
44765;BME280;30484;52.382;5.260;2023-06-14T08:25:50;101912.88;;;26.33;80.10
44765;BME280;30484;52.382;5.260;2023-06-14T08:28:18;101920.19;;;26.43;83.30
44765;BME280;30484;52.382;5.260;2023-06-14T08:30:47;101914.34;;;26.74;78.95
44765;BME280;30484;52.382;5.260;2023-06-14T08:33:16;101911.88;;;27.07;77.96
44765;BME280;30484;52.382;5.260;2023-06-14T08:35:53;101915.78;;;27.04;76.24
44765;BME280;30484;52.382;5.260;2023-06-14T08:38:25;101915.69;;;26.69;75.68
44765;BME280;30484;52.382;5.260;2023-06-14T08:41:06;101905.84;;;26.67;73.30
44765;BME280;30484;52.382;5.260;2023-06-14T08:43:35;101907.75;;;26.84;74.15
44765;BME280;30484;52.382;5.260;2023-06-14T08:46:10;101913.78;;;26.88;68.68
44765;BME280;30484;52.382;5.260;2023-06-14T08:48:44;101911.72;;;26.72;70.53
44765;BME280;30484;52.382;5.260;2023-06-14T08:51:14;101903.78;;;27.31;69.96
44765;BME280;30484;52.382;5.260;2023-06-14T08:53:44;101910.47;;;27.29;70.33
44765;BME280;30484;52.382;5.260;2023-06-14T08:56:13;101920.41;;;27.48;68.55
44765;BME280;30484;52.382;5.260;2023-06-14T08:58:43;101911.13;;;27.49;68.79
44765;BME280;30484;52.382;5.260;2023-06-14T09:01:12;101895.59;;;27.13;65.48
44765;BME280;30484;52.382;5.260;2023-06-14T09:03:44;101904.97;;;27.29;64.77
44765;BME280;30484;52.382;5.260;2023-06-14T09:06:16;101906.41;;;27.67;61.61
44765;BME280;30484;52.382;5.260;2023-06-14T09:08:50;101915.75;;;27.48;62.12
44765;BME280;30484;52.382;5.260;2023-06-14T09:11:22;101914.19;;;27.80;62.29
44765;BME280;30484;52.382;5.260;2023-06-14T09:13:51;101904.88;;;27.99;61.88
44765;BME280;30484;52.382;5.260;2023-06-14T09:16:20;101911.56;;;27.62;62.00
44765;BME280;30484;52.382;5.260;2023-06-14T09:18:49;101920.56;;;28.32;62.42
44765;BME280;30484;52.382;5.260;2023-06-14T09:21:21;101906.59;;;28.09;59.96
44765;BME280;30484;52.382;5.260;2023-06-14T09:23:53;101929.16;;;27.86;58.75
44765;BME280;30484;52.382;5.260;2023-06-14T09:26:23;101927.56;;;28.10;57.54
44765;BME280;30484;52.382;5.260;2023-06-14T09:28:55;101923.34;;;28.48;58.92
44765;BME280;30484;52.382;5.260;2023-06-14T09:31:27;101929.31;;;28.27;58.30
44765;BME280;30484;52.382;5.260;2023-06-14T09:34:06;101914.66;;;28.69;58.27
44765;BME280;30484;52.382;5.260;2023-06-14T09:36:48;101922.25;;;27.73;58.69
44765;BME280;30484;52.382;5.260;2023-06-14T09:39:22;101925.31;;;28.13;58.12
44765;BME280;30484;52.382;5.260;2023-06-14T09:41:59;101921.16;;;28.68;58.48
44765;BME280;30484;52.382;5.260;2023-06-14T09:44:39;101929.88;;;28.47;57.84
44765;BME280;30484;52.382;5.260;2023-06-14T09:47:23;101943.13;;;28.52;55.48
44765;BME280;30484;52.382;5.260;2023-06-14T09:50:07;101921.00;;;28.70;55.36
44765;BME280;30484;52.382;5.260;2023-06-14T09:52:42;101936.97;;;28.74;55.96
44765;BME280;30484;52.382;5.260;2023-06-14T09:55:14;101916.88;;;28.90;54.47
44765;BME280;30484;52.382;5.260;2023-06-14T09:57:45;101925.13;;;28.66;55.42
44765;BME280;30484;52.382;5.260;2023-06-14T10:00:23;101934.19;;;28.58;55.35
44765;BME280;30484;52.382;5.260;2023-06-14T10:03:10;101926.16;;;28.81;59.39
44765;BME280;30484;52.382;5.260;2023-06-14T10:05:47;101923.06;;;29.01;54.16
44765;BME280;30484;52.382;5.260;2023-06-14T10:08:23;101931.50;;;28.99;53.57
44765;BME280;30484;52.382;5.260;2023-06-14T10:10:58;101906.41;;;28.78;52.54
44765;BME280;30484;52.382;5.260;2023-06-14T10:13:32;101925.47;;;28.96;51.45
44765;BME280;30484;52.382;5.260;2023-06-14T10:16:15;101920.09;;;29.52;50.30
44765;BME280;30484;52.382;5.260;2023-06-14T10:18:51;101923.88;;;29.51;52.08
44765;BME280;30484;52.382;5.260;2023-06-14T10:21:37;101917.41;;;29.83;51.86
44765;BME280;30484;52.382;5.260;2023-06-14T10:24:18;101924.78;;;29.83;51.02
44765;BME280;30484;52.382;5.260;2023-06-14T10:26:53;101915.13;;;29.95;51.16
44765;BME280;30484;52.382;5.260;2023-06-14T10:29:27;101915.53;;;30.38;52.76
44765;BME280;30484;52.382;5.260;2023-06-14T10:32:00;101910.88;;;29.76;53.85
44765;BME280;30484;52.382;5.260;2023-06-14T10:34:32;101913.94;;;30.21;53.40
44765;BME280;30484;52.382;5.260;2023-06-14T10:37:11;101909.56;;;30.03;49.55
44765;BME280;30484;52.382;5.260;2023-06-14T10:39:44;101900.78;;;30.31;50.27
44765;BME280;30484;52.382;5.260;2023-06-14T10:42:18;101913.84;;;30.84;50.51
44765;BME280;30484;52.382;5.260;2023-06-14T10:44:54;101916.13;;;30.25;50.16
44765;BME280;30484;52.382;5.260;2023-06-14T10:47:27;101911.69;;;30.24;49.31
44765;BME280;30484;52.382;5.260;2023-06-14T10:50:05;101913.19;;;30.58;50.16
44765;BME280;30484;52.382;5.260;2023-06-14T10:52:40;101920.94;;;30.63;48.26
44765;BME280;30484;52.382;5.260;2023-06-14T10:55:16;101915.47;;;30.55;46.82
44765;BME280;30484;52.382;5.260;2023-06-14T10:57:52;101917.81;;;30.66;46.56
44765;BME280;30484;52.382;5.260;2023-06-14T11:00:27;101924.41;;;31.03;46.93
44765;BME280;30484;52.382;5.260;2023-06-14T11:03:43;101915.00;;;31.12;47.15
44765;BME280;30484;52.382;5.260;2023-06-14T11:06:22;101905.28;;;31.02;45.95
44765;BME280;30484;52.382;5.260;2023-06-14T11:17:06;101898.75;;;31.77;46.65
44765;BME280;30484;52.382;5.260;2023-06-14T11:19:37;101890.44;;;31.32;45.96
44765;BME280;30484;52.382;5.260;2023-06-14T11:22:06;101901.78;;;31.23;45.20
44765;BME280;30484;52.382;5.260;2023-06-14T11:24:35;101906.84;;;30.96;44.76
44765;BME280;30484;52.382;5.260;2023-06-14T11:27:07;101901.19;;;31.12;44.44
44765;BME280;30484;52.382;5.260;2023-06-14T11:29:48;101906.28;;;31.39;45.57
44765;BME280;30484;52.382;5.260;2023-06-14T11:32:19;101900.75;;;31.39;44.16
44765;BME280;30484;52.382;5.260;2023-06-14T11:34:48;101905.03;;;31.86;43.07
44765;BME280;30484;52.382;5.260;2023-06-14T11:37:18;101903.06;;;32.16;42.39
44765;BME280;30484;52.382;5.260;2023-06-14T11:39:47;101877.44;;;32.23;43.03
44765;BME280;30484;52.382;5.260;2023-06-14T11:42:16;101890.97;;;32.17;44.41
44765;BME280;30484;52.382;5.260;2023-06-14T11:44:46;101897.13;;;31.83;42.42
44765;BME280;30484;52.382;5.260;2023-06-14T11:47:20;101892.34;;;31.92;43.01
44765;BME280;30484;52.382;5.260;2023-06-14T11:49:53;101893.50;;;32.34;43.72
44765;BME280;30484;52.382;5.260;2023-06-14T11:52:21;101892.78;;;32.47;43.17
44765;BME280;30484;52.382;5.260;2023-06-14T11:54:51;101877.81;;;32.20;43.22
44765;BME280;30484;52.382;5.260;2023-06-14T11:57:20;101892.53;;;31.90;42.42
44765;BME280;30484;52.382;5.260;2023-06-14T11:59:51;101886.03;;;31.98;41.90
44765;BME280;30484;52.382;5.260;2023-06-14T12:05:44;101888.91;;;32.41;43.01
44765;BME280;30484;52.382;5.260;2023-06-14T12:08:13;101887.25;;;32.10;42.41
44765;BME280;30484;52.382;5.260;2023-06-14T12:10:51;101880.19;;;32.23;42.48
44765;BME280;30484;52.382;5.260;2023-06-14T12:13:24;101878.75;;;32.70;42.66
44765;BME280;30484;52.382;5.260;2023-06-14T12:15:55;101890.66;;;32.12;41.25
44765;BME280;30484;52.382;5.260;2023-06-14T12:18:35;101893.09;;;32.80;41.40
44765;BME280;30484;52.382;5.260;2023-06-14T12:21:07;101885.22;;;33.06;40.87
44765;BME280;30484;52.382;5.260;2023-06-14T12:23:50;101889.44;;;33.01;41.87
44765;BME280;30484;52.382;5.260;2023-06-14T12:26:22;101892.28;;;32.86;40.58
44765;BME280;30484;52.382;5.260;2023-06-14T12:28:56;101879.72;;;32.84;40.04
44765;BME280;30484;52.382;5.260;2023-06-14T12:31:27;101892.03;;;33.73;40.57
44765;BME280;30484;52.382;5.260;2023-06-14T12:33:58;101898.06;;;33.83;39.79
44765;BME280;30484;52.382;5.260;2023-06-14T12:36:27;101904.66;;;34.44;39.06
44765;BME280;30484;52.382;5.260;2023-06-14T12:38:56;101906.28;;;34.18;37.76
44765;BME280;30484;52.382;5.260;2023-06-14T12:41:32;101892.59;;;33.97;37.37
44765;BME280;30484;52.382;5.260;2023-06-14T12:44:01;101888.59;;;34.19;37.77
44765;BME280;30484;52.382;5.260;2023-06-14T12:46:32;101881.44;;;33.77;37.50
44765;BME280;30484;52.382;5.260;2023-06-14T12:49:03;101880.78;;;32.83;37.09
44765;BME280;30484;52.382;5.260;2023-06-14T12:51:37;101886.63;;;34.00;37.61
44765;BME280;30484;52.382;5.260;2023-06-14T12:54:08;101874.03;;;33.55;37.42
44765;BME280;30484;52.382;5.260;2023-06-14T12:56:37;101869.25;;;34.93;37.33
44765;BME280;30484;52.382;5.260;2023-06-14T12:59:08;101900.22;;;35.30;37.33
44765;BME280;30484;52.382;5.260;2023-06-14T13:01:39;101879.69;;;34.57;36.57
44765;BME280;30484;52.382;5.260;2023-06-14T13:04:14;101877.56;;;35.26;36.94
44765;BME280;30484;52.382;5.260;2023-06-14T13:06:43;101873.94;;;34.52;35.66
44765;BME280;30484;52.382;5.260;2023-06-14T13:09:12;101893.03;;;35.81;36.07
44765;BME280;30484;52.382;5.260;2023-06-14T13:11:42;101886.44;;;36.14;36.09
44765;BME280;30484;52.382;5.260;2023-06-14T13:14:23;101885.63;;;36.71;35.11
44765;BME280;30484;52.382;5.260;2023-06-14T13:16:53;101878.00;;;34.70;35.19